Time;durP1;ratioP1;P1;durP2;ratioP2;P2;SDS_P1;SDS_P2;PMS_P1;PMS_P2;Temp;Humidity;BMP_temperature;BMP_pressure;BME280_temperature;BME280_humidity;BME280_pressure;Samples;Min_cycle;Max_cycle;Signal;HPM_P1;HPM_P2
2021/09/06 00:01:20;;;;;;;2.10;1.90;;;22.20;77.30;;;;;;5036634;28;20029;-59
2021/09/06 00:03:46;;;;;;;4.50;2.10;;;22.20;77.50;;;;;;5034264;28;20036;-59
2021/09/06 00:06:12;;;;;;;0.47;0.40;;;22.20;77.50;;;;;;5020169;28;20061;-59
2021/09/06 00:08:39;;;;;;;2.45;2.13;;;22.20;77.80;;;;;;5015011;28;20440;-59
2021/09/06 00:11:11;;;;;;;2.63;1.75;;;22.20;78.00;;;;;;5023321;28;20029;-59
2021/09/06 00:13:40;;;;;;;11.32;1.42;;;22.20;78.20;;;;;;5027932;28;20363;-59
2021/09/06 00:16:07;;;;;;;2.70;1.08;;;22.20;78.40;;;;;;5028449;28;20029;-59
2021/09/06 00:18:34;;;;;;;1.85;1.05;;;22.20;78.50;;;;;;5023025;28;20444;-59
2021/09/06 00:21:06;;;;;;;0.82;0.77;;;22.20;78.50;;;;;;5036534;28;20034;-59
2021/09/06 00:23:33;;;;;;;5.25;1.20;;;22.20;78.50;;;;;;5034865;28;20439;-59
2021/09/06 00:26:00;;;;;;;1.35;1.25;;;22.30;78.80;;;;;;5031962;28;20363;-59
2021/09/06 00:28:27;;;;;;;2.10;1.08;;;22.30;78.90;;;;;;5026401;28;20374;-59
2021/09/06 00:30:53;;;;;;;2.35;0.88;;;22.30;79.10;;;;;;5028651;28;20021;-59
2021/09/06 00:33:20;;;;;;;4.38;2.13;;;22.30;79.30;;;;;;5031569;28;20040;-60
2021/09/06 00:35:47;;;;;;;2.53;2.25;;;22.30;79.30;;;;;;5023804;28;20409;-60
2021/09/06 00:38:16;;;;;;;2.45;2.00;;;24.90;66.60;;;;;;5027303;28;20677;-59
2021/09/06 00:40:44;;;;;;;4.50;1.55;;;25.10;59.70;;;;;;5033117;28;20079;-59
2021/09/06 00:43:11;;;;;;;5.10;3.28;;;25.90;55.90;;;;;;5036724;28;20497;-60
2021/09/06 00:45:38;;;;;;;4.43;3.03;;;26.40;55.40;;;;;;5029535;28;20072;-65
2021/09/06 00:48:06;;;;;;;7.35;3.75;;;26.10;56.50;;;;;;5028970;28;20057;-65
2021/09/06 00:50:33;;;;;;;5.32;2.45;;;25.80;55.70;;;;;;5027560;28;20557;-65
2021/09/06 00:53:02;;;;;;;3.13;2.10;;;25.40;58.50;;;;;;5038516;28;20076;-67
2021/09/06 00:55:28;;;;;;;3.25;2.50;;;25.20;58.60;;;;;;5040489;28;20028;-65
2021/09/06 00:57:55;;;;;;;4.22;2.85;;;25.30;56.80;;;;;;5040763;28;20038;-65
2021/09/06 01:00:21;;;;;;;7.15;3.83;;;25.10;60.00;;;;;;5035399;28;20041;-66
2021/09/06 01:02:48;;;;;;;5.72;3.60;;;24.70;61.30;;;;;;5047581;28;20022;-66
2021/09/06 01:05:16;;;;;;;5.28;2.70;;;24.40;62.50;;;;;;5046768;28;20104;-66
2021/09/06 01:07:42;;;;;;;10.18;4.40;;;24.20;63.40;;;;;;5047678;28;20075;-66
2021/09/06 01:10:12;;;;;;;2.70;2.03;;;24.10;62.60;;;;;;5045987;28;20501;-66
2021/09/06 01:12:39;;;;;;;8.23;3.90;;;24.00;65.10;;;;;;5044953;28;20103;-66
2021/09/06 01:15:06;;;;;;;5.00;3.55;;;23.90;64.10;;;;;;5041013;28;20677;-66
2021/09/06 01:17:33;;;;;;;3.03;2.50;;;23.90;65.20;;;;;;5037596;28;20049;-66
2021/09/06 01:20:00;;;;;;;6.93;3.20;;;23.80;65.80;;;;;;5035362;28;20022;-66
2021/09/06 01:22:26;;;;;;;3.97;2.58;;;23.80;65.20;;;;;;5039999;28;20113;-66
2021/09/06 01:24:53;;;;;;;3.10;2.75;;;23.80;66.10;;;;;;5045701;28;20040;-66
2021/09/06 01:27:19;;;;;;;4.40;2.60;;;24.00;65.80;;;;;;5033234;28;20029;-66
2021/09/06 01:29:46;;;;;;;5.63;4.20;;;24.00;66.70;;;;;;5033489;28;20117;-66
2021/09/06 01:32:13;;;;;;;17.50;4.75;;;24.00;66.50;;;;;;5030947;28;20034;-65
2021/09/06 01:34:39;;;;;;;6.00;3.67;;;24.20;66.00;;;;;;5030210;28;20067;-66
2021/09/06 01:37:06;;;;;;;5.32;4.00;;;24.30;66.40;;;;;;5036521;28;20029;-66
2021/09/06 01:39:32;;;;;;;7.22;4.55;;;24.20;66.10;;;;;;5040858;28;20473;-66
2021/09/06 01:41:59;;;;;;;4.50;4.07;;;24.20;66.40;;;;;;5042345;28;20022;-75
2021/09/06 01:44:26;;;;;;;8.25;4.82;;;24.10;66.80;;;;;;5025402;28;20108;-76
2021/09/06 01:46:52;;;;;;;11.30;5.78;;;24.00;66.70;;;;;;5026982;28;20079;-76
2021/09/06 01:49:18;;;;;;;6.68;4.50;;;23.90;67.60;;;;;;5025024;28;20064;-77
2021/09/06 01:51:45;;;;;;;3.28;2.97;;;23.70;67.70;;;;;;5032033;28;20045;-76
2021/09/06 01:54:11;;;;;;;9.80;5.57;;;23.70;68.50;;;;;;5042496;28;20036;-76
2021/09/06 01:56:38;;;;;;;4.00;3.60;;;23.60;68.30;;;;;;5033939;28;20021;-76
2021/09/06 01:59:05;;;;;;;9.38;5.03;;;23.60;69.10;;;;;;5039740;28;20129;-76
2021/09/06 02:01:31;;;;;;;10.95;6.30;;;23.60;69.60;;;;;;5039430;28;20017;-76
2021/09/06 02:03:57;;;;;;;2.67;2.25;;;23.50;69.90;;;;;;5038881;28;20021;-76
2021/09/06 02:06:24;;;;;;;7.95;3.97;;;23.50;69.80;;;;;;5041086;28;20025;-76
2021/09/06 02:08:50;;;;;;;11.00;4.65;;;23.40;69.80;;;;;;5041088;28;20757;-76
2021/09/06 02:11:17;;;;;;;7.22;4.80;;;23.30;70.10;;;;;;5044722;28;20043;-76
2021/09/06 02:13:43;;;;;;;6.80;5.55;;;23.10;70.20;;;;;;5040467;28;20025;-76
2021/09/06 02:16:09;;;;;;;5.25;3.25;;;23.00;70.60;;;;;;5042082;28;20040;-76
2021/09/06 02:18:36;;;;;;;2.22;2.03;;;22.80;70.90;;;;;;5041980;28;20037;-76
2021/09/06 02:21:02;;;;;;;6.70;4.75;;;22.70;71.40;;;;;;5041690;28;20097;-76
2021/09/06 02:23:29;;;;;;;2.88;1.80;;;22.80;71.50;;;;;;5037870;28;20462;-76
2021/09/06 02:25:55;;;;;;;3.08;2.78;;;22.80;71.20;;;;;;5036568;28;20033;-76
2021/09/06 02:28:21;;;;;;;3.25;2.47;;;22.70;71.40;;;;;;5038535;28;20033;-76
2021/09/06 02:30:48;;;;;;;5.82;4.35;;;22.60;72.00;;;;;;5039788;28;20067;-76
2021/09/06 02:33:14;;;;;;;2.45;2.25;;;22.60;72.30;;;;;;5035852;28;20029;-76
2021/09/06 02:35:41;;;;;;;4.10;3.60;;;22.70;71.50;;;;;;5034483;28;20028;-76
2021/09/06 02:38:07;;;;;;;5.45;3.97;;;22.70;71.80;;;;;;5032805;28;20361;-76
2021/09/06 02:40:33;;;;;;;33.65;6.55;;;22.90;72.30;;;;;;5030400;28;20092;-76
2021/09/06 02:43:00;;;;;;;5.15;4.03;;;22.90;72.10;;;;;;5031121;28;20017;-76
2021/09/06 02:45:26;;;;;;;4.78;2.80;;;22.90;71.10;;;;;;5023995;28;20025;-76
2021/09/06 02:47:53;;;;;;;10.63;5.35;;;22.80;72.30;;;;;;5035181;28;20029;-76
2021/09/06 02:50:19;;;;;;;8.27;4.40;;;22.80;72.40;;;;;;5025772;28;20120;-76
2021/09/06 02:52:46;;;;;;;10.55;5.55;;;22.60;71.90;;;;;;5027156;28;20403;-76
2021/09/06 02:55:12;;;;;;;14.60;3.58;;;22.20;72.60;;;;;;5031650;28;20109;-76
2021/09/06 02:57:39;;;;;;;9.05;4.07;;;22.00;73.50;;;;;;5033848;28;20030;-76
2021/09/06 03:00:06;;;;;;;4.63;3.58;;;21.90;73.40;;;;;;5032501;28;20029;-76
2021/09/06 03:02:32;;;;;;;5.05;2.38;;;22.00;73.40;;;;;;5028980;28;20408;-76
2021/09/06 03:04:59;;;;;;;4.60;2.88;;;22.00;73.60;;;;;;5027398;28;20041;-76
2021/09/06 03:07:25;;;;;;;2.83;2.58;;;22.10;72.60;;;;;;5033428;28;20095;-76
2021/09/06 03:09:52;;;;;;;3.45;3.10;;;22.00;72.80;;;;;;5028087;28;20500;-76
2021/09/06 03:12:18;;;;;;;3.80;3.17;;;22.20;73.30;;;;;;5020559;28;20042;-76
2021/09/06 03:14:44;;;;;;;15.48;4.90;;;22.30;73.70;;;;;;5021837;28;20108;-76
2021/09/06 03:17:11;;;;;;;3.47;3.08;;;22.40;72.10;;;;;;5024084;28;20030;-76
2021/09/06 03:19:37;;;;;;;3.95;3.17;;;22.10;72.60;;;;;;5020586;28;20069;-76
2021/09/06 03:22:04;;;;;;;7.43;3.88;;;21.90;73.00;;;;;;5032018;28;20029;-76
2021/09/06 03:24:30;;;;;;;6.93;4.32;;;21.60;73.40;;;;;;5026937;28;20017;-76
2021/09/06 03:26:56;;;;;;;8.63;4.78;;;21.40;74.30;;;;;;5029715;28;20025;-76
2021/09/06 03:29:23;;;;;;;3.25;2.85;;;21.20;74.90;;;;;;5022761;28;20018;-66
2021/09/06 03:31:49;;;;;;;4.60;2.95;;;21.10;75.10;;;;;;5016936;28;20033;-66
2021/09/06 03:34:16;;;;;;;4.50;2.28;;;20.90;75.40;;;;;;5014761;28;20038;-66
2021/09/06 03:36:42;;;;;;;4.53;4.13;;;20.80;75.90;;;;;;5022346;28;20490;-66
2021/09/06 03:39:08;;;;;;;7.22;4.40;;;20.60;76.50;;;;;;5025351;28;20030;-65
2021/09/06 03:41:35;;;;;;;10.88;4.18;;;20.70;76.10;;;;;;5020679;28;20496;-65
2021/09/06 03:44:02;;;;;;;5.15;4.07;;;20.80;76.10;;;;;;5023003;28;20026;-66
2021/09/06 03:46:30;;;;;;;2.65;2.45;;;20.80;75.90;;;;;;5022746;28;20022;-66
2021/09/06 03:48:56;;;;;;;6.22;1.88;;;20.80;75.90;;;;;;5023050;28;20376;-66
2021/09/06 03:51:23;;;;;;;5.70;4.15;;;20.80;75.60;;;;;;5024754;28;20123;-66
2021/09/06 03:53:49;;;;;;;6.00;4.65;;;20.70;76.20;;;;;;5025200;28;20100;-66
2021/09/06 03:56:16;;;;;;;4.75;2.42;;;20.70;75.90;;;;;;5014645;28;20053;-66
2021/09/06 03:58:42;;;;;;;3.10;2.13;;;20.80;76.30;;;;;;5030897;28;20033;-66
2021/09/06 04:01:09;;;;;;;8.75;4.00;;;20.80;76.40;;;;;;5025339;28;20352;-66
2021/09/06 04:03:35;;;;;;;5.78;3.28;;;20.70;76.40;;;;;;5028180;28;20103;-65
2021/09/06 04:06:02;;;;;;;4.07;2.80;;;20.70;76.40;;;;;;5024192;28;20022;-66
2021/09/06 04:08:28;;;;;;;7.45;3.25;;;20.40;77.40;;;;;;5033559;28;20355;-66
2021/09/06 04:10:55;;;;;;;2.58;2.10;;;20.40;77.40;;;;;;5026338;28;20021;-66
2021/09/06 04:13:21;;;;;;;2.47;2.28;;;20.20;77.90;;;;;;5026322;28;20044;-66
2021/09/06 04:15:48;;;;;;;2.05;1.92;;;20.00;78.50;;;;;;5030138;28;20079;-66
2021/09/06 04:18:16;;;;;;;6.38;2.40;;;19.80;79.10;;;;;;5030211;28;20048;-66
2021/09/06 04:20:43;;;;;;;2.25;1.80;;;19.70;79.50;;;;;;5025106;28;20083;-65
2021/09/06 04:23:09;;;;;;;0.60;0.60;;;19.60;79.60;;;;;;5016351;28;20034;-66
2021/09/06 04:25:36;;;;;;;7.22;2.08;;;19.50;80.00;;;;;;5026227;28;20044;-66
2021/09/06 04:28:02;;;;;;;9.18;3.05;;;19.50;80.00;;;;;;5016958;28;20025;-66
2021/09/06 04:30:29;;;;;;;2.50;2.30;;;19.70;80.00;;;;;;5030292;28;20259;-63
2021/09/06 04:32:55;;;;;;;4.50;1.80;;;19.70;79.00;;;;;;5029112;28;20033;-64
2021/09/06 04:35:21;;;;;;;6.70;2.88;;;19.60;79.90;;;;;;5022350;28;20037;-64
2021/09/06 04:37:48;;;;;;;2.90;2.28;;;19.60;79.50;;;;;;5027865;28;20025;-65
2021/09/06 04:40:14;;;;;;;6.55;2.38;;;19.30;80.20;;;;;;5027690;28;20045;-65
2021/09/06 04:42:41;;;;;;;2.53;2.15;;;19.20;80.90;;;;;;5028490;28;20107;-67
2021/09/06 04:45:09;;;;;;;5.25;3.20;;;19.30;80.80;;;;;;5033068;28;20049;-73
2021/09/06 04:47:35;;;;;;;2.78;2.53;;;19.30;80.70;;;;;;5027361;28;20395;-74
2021/09/06 04:50:02;;;;;;;4.20;3.13;;;19.10;81.30;;;;;;5027764;28;20021;-74
2021/09/06 04:52:28;;;;;;;23.88;4.15;;;18.90;82.20;;;;;;5021242;28;20117;-75
2021/09/06 04:54:55;;;;;;;1.58;1.48;;;18.70;82.50;;;;;;5033012;28;20121;-74
2021/09/06 04:57:22;;;;;;;8.80;2.15;;;18.70;82.30;;;;;;5026572;28;20033;-74
2021/09/06 04:59:48;;;;;;;4.63;2.47;;;18.70;82.60;;;;;;5014298;28;20018;-73
2021/09/06 05:02:15;;;;;;;2.90;1.70;;;18.70;82.90;;;;;;5015093;28;20072;-74
2021/09/06 05:04:41;;;;;;;3.20;1.38;;;18.60;82.70;;;;;;5019896;28;20036;-73
2021/09/06 05:07:07;;;;;;;3.20;2.30;;;18.60;83.10;;;;;;5029471;28;20018;-74
2021/09/06 05:09:34;;;;;;;4.72;2.90;;;18.40;83.50;;;;;;5019895;28;20109;-74
2021/09/06 05:12:00;;;;;;;3.30;2.63;;;18.30;83.70;;;;;;5033238;28;20033;-74
2021/09/06 05:14:26;;;;;;;4.10;2.35;;;18.30;84.00;;;;;;5023791;28;20033;-75
2021/09/06 05:16:53;;;;;;;4.82;2.58;;;18.30;84.10;;;;;;5028908;28;20105;-74
2021/09/06 05:19:19;;;;;;;2.35;1.85;;;18.20;84.70;;;;;;5032842;28;20478;-71
2021/09/06 05:21:46;;;;;;;0.88;0.85;;;18.20;84.60;;;;;;5037929;28;20034;-72
2021/09/06 05:24:12;;;;;;;6.35;2.92;;;18.20;84.50;;;;;;5033346;28;20105;-71
2021/09/06 05:26:38;;;;;;;2.78;1.25;;;18.00;85.10;;;;;;5032299;28;20029;-66
2021/09/06 05:29:05;;;;;;;2.03;1.13;;;18.40;85.00;;;;;;5032356;28;20032;-66
2021/09/06 05:31:31;;;;;;;2.35;2.15;;;18.90;83.60;;;;;;5031224;28;20044;-66
2021/09/06 05:33:57;;;;;;;6.28;2.53;;;19.10;82.90;;;;;;5026615;28;20033;-66
2021/09/06 05:36:24;;;;;;;13.80;5.45;;;19.20;82.40;;;;;;5027540;28;20112;-66
2021/09/06 05:38:51;;;;;;;4.88;3.10;;;19.30;82.10;;;;;;5021124;28;20164;-67
2021/09/06 05:41:20;;;;;;;3.85;1.33;;;19.30;82.00;;;;;;5036191;28;20032;-67
2021/09/06 05:43:48;;;;;;;1.70;1.45;;;19.40;81.80;;;;;;5019907;28;20024;-66
2021/09/06 05:46:15;;;;;;;1.17;0.82;;;19.40;81.60;;;;;;5031916;28;20598;-67
2021/09/06 05:48:41;;;;;;;3.22;2.08;;;19.40;81.20;;;;;;5025672;28;20044;-68
2021/09/06 05:51:07;;;;;;;2.60;2.25;;;19.40;81.40;;;;;;5021147;28;20026;-67
2021/09/06 05:53:34;;;;;;;3.10;2.80;;;19.40;81.50;;;;;;5016802;28;20084;-68
2021/09/06 05:56:00;;;;;;;3.15;2.95;;;19.40;81.30;;;;;;5028502;28;20021;-68
2021/09/06 05:58:27;;;;;;;3.08;2.35;;;19.40;81.60;;;;;;5027929;28;20038;-68
2021/09/06 06:00:53;;;;;;;7.53;3.45;;;19.30;81.50;;;;;;5031482;28;20045;-68
2021/09/06 06:03:20;;;;;;;9.55;3.47;;;19.20;81.70;;;;;;5023728;28;20451;-67
2021/09/06 06:05:46;;;;;;;5.97;3.65;;;19.10;81.60;;;;;;5026991;28;20022;-67
2021/09/06 06:08:12;;;;;;;7.43;3.83;;;19.10;81.30;;;;;;5019191;28;20018;-67
2021/09/06 06:10:39;;;;;;;4.45;2.22;;;19.10;81.30;;;;;;5033018;28;20047;-67
2021/09/06 06:13:05;;;;;;;4.57;4.15;;;19.00;81.20;;;;;;5036153;28;20360;-67
2021/09/06 06:15:31;;;;;;;3.00;2.80;;;18.90;80.90;;;;;;5021040;28;20032;-67
2021/09/06 06:17:58;;;;;;;1.95;1.52;;;18.80;81.10;;;;;;5029290;28;20645;-68
2021/09/06 06:20:24;;;;;;;4.13;3.47;;;18.90;80.40;;;;;;5023492;28;20095;-67
2021/09/06 06:22:51;;;;;;;8.98;2.45;;;18.90;79.90;;;;;;5034111;28;20104;-67
2021/09/06 06:25:17;;;;;;;4.80;4.28;;;18.90;79.10;;;;;;5017521;28;20036;-68
2021/09/06 06:27:44;;;;;;;2.92;2.40;;;18.90;79.40;;;;;;5022132;28;20021;-68
2021/09/06 06:30:11;;;;;;;3.85;1.98;;;18.90;78.80;;;;;;5025679;28;20072;-68
2021/09/06 06:32:37;;;;;;;2.53;2.10;;;18.90;78.90;;;;;;5016199;28;20038;-67
2021/09/06 06:35:04;;;;;;;4.75;3.13;;;18.80;78.90;;;;;;5016052;28;20037;-68
2021/09/06 06:37:30;;;;;;;11.85;4.15;;;19.00;78.80;;;;;;5024465;28;20056;-68
2021/09/06 06:39:57;;;;;;;2.85;1.63;;;18.90;78.80;;;;;;5026793;28;20021;-68
2021/09/06 06:42:23;;;;;;;9.30;5.00;;;18.80;79.10;;;;;;5024908;28;20025;-68
2021/09/06 06:44:49;;;;;;;7.05;2.63;;;18.80;79.30;;;;;;5031157;28;20017;-68
2021/09/06 06:47:16;;;;;;;5.65;4.00;;;18.80;79.20;;;;;;5030745;28;20041;-68
2021/09/06 06:49:42;;;;;;;3.28;2.97;;;18.80;79.40;;;;;;5017257;28;20050;-68
2021/09/06 06:52:09;;;;;;;3.55;2.75;;;18.70;79.30;;;;;;5016100;28;20026;-68
2021/09/06 06:54:35;;;;;;;1.38;1.27;;;18.60;79.60;;;;;;5016176;28;20113;-67
2021/09/06 06:57:02;;;;;;;4.90;2.90;;;18.60;79.30;;;;;;5015503;28;20037;-68
2021/09/06 06:59:28;;;;;;;4.57;2.40;;;18.60;79.10;;;;;;5016311;28;20163;-68
2021/09/06 07:01:54;;;;;;;7.03;3.67;;;18.70;78.30;;;;;;5025598;28;20027;-68
2021/09/06 07:04:21;;;;;;;2.05;1.88;;;18.60;78.10;;;;;;5024239;28;20022;-67
2021/09/06 07:06:48;;;;;;;4.60;3.70;;;18.50;77.90;;;;;;5031754;28;20032;-67
2021/09/06 07:09:14;;;;;;;5.90;4.75;;;18.50;77.90;;;;;;5027190;28;20056;-67
2021/09/06 07:11:40;;;;;;;9.25;4.43;;;18.60;77.90;;;;;;5033983;28;20029;-67
2021/09/06 07:14:07;;;;;;;11.65;4.57;;;18.60;77.40;;;;;;5035011;28;20349;-68
2021/09/06 07:16:33;;;;;;;3.80;2.33;;;18.50;77.10;;;;;;5026141;28;20364;-67
2021/09/06 07:19:00;;;;;;;4.20;3.17;;;18.40;77.80;;;;;;5020537;28;20026;-67
2021/09/06 07:21:26;;;;;;;10.30;5.35;;;18.40;77.80;;;;;;5030761;28;20029;-67
2021/09/06 07:23:52;;;;;;;7.03;3.95;;;18.40;77.70;;;;;;5020229;28;20061;-67
2021/09/06 07:26:19;;;;;;;1.70;1.55;;;18.40;77.70;;;;;;5014418;28;20022;-67
2021/09/06 07:28:45;;;;;;;2.65;2.42;;;18.40;77.70;;;;;;5024358;28;20030;-67
2021/09/06 07:31:12;;;;;;;4.68;3.35;;;18.40;77.80;;;;;;5026182;28;20036;-67
2021/09/06 07:33:39;;;;;;;3.85;2.47;;;18.40;77.70;;;;;;5029588;28;20080;-67
2021/09/06 07:36:06;;;;;;;5.68;2.80;;;18.40;77.70;;;;;;5024546;28;20030;-67
2021/09/06 07:38:32;;;;;;;3.65;2.78;;;18.30;78.00;;;;;;5016688;28;20024;-67
2021/09/06 07:40:59;;;;;;;4.30;3.85;;;18.20;78.20;;;;;;5031418;28;20026;-67
2021/09/06 07:43:25;;;;;;;4.03;3.72;;;18.10;78.30;;;;;;5014975;28;20522;-67
2021/09/06 07:45:52;;;;;;;4.25;3.00;;;18.10;77.50;;;;;;5016493;28;20025;-67
2021/09/06 07:48:19;;;;;;;9.55;3.67;;;18.20;77.50;;;;;;5027784;28;20038;-67
2021/09/06 07:50:47;;;;;;;11.02;3.83;;;18.10;77.20;;;;;;5018283;28;20026;-67
2021/09/06 07:53:13;;;;;;;9.35;5.25;;;18.10;77.30;;;;;;5016231;28;20030;-68
2021/09/06 07:55:40;;;;;;;7.03;3.53;;;18.20;77.40;;;;;;5016106;28;20026;-67
2021/09/06 07:58:06;;;;;;;9.43;4.43;;;18.10;77.30;;;;;;5028462;28;20328;-67
2021/09/06 08:00:33;;;;;;;9.90;2.53;;;18.10;77.40;;;;;;5027437;28;20160;-67
2021/09/06 08:02:59;;;;;;;3.78;3.15;;;18.00;77.70;;;;;;5021858;28;20022;-67
2021/09/06 08:05:31;;;;;;;6.38;2.85;;;18.00;77.50;;;;;;5019988;28;20347;-67
2021/09/06 08:07:59;;;;;;;2.47;2.28;;;17.80;77.80;;;;;;5024737;28;20013;-68
2021/09/06 08:10:26;;;;;;;5.20;3.80;;;17.80;78.00;;;;;;5020045;28;20033;-68
2021/09/06 08:12:52;;;;;;;16.42;3.65;;;17.70;78.20;;;;;;5015584;28;20029;-68
2021/09/06 08:15:19;;;;;;;6.40;2.65;;;17.80;78.20;;;;;;5017354;28;20356;-68
2021/09/06 08:17:45;;;;;;;8.60;5.20;;;17.70;78.00;;;;;;5022329;28;20021;-68
2021/09/06 08:20:15;;;;;;;13.13;2.83;;;17.80;78.20;;;;;;5032678;28;20444;-69
2021/09/06 08:22:41;;;;;;;4.72;2.58;;;17.70;77.70;;;;;;5027726;28;20041;-68
2021/09/06 08:25:09;;;;;;;5.90;3.55;;;17.70;77.90;;;;;;5014374;28;20022;-68
2021/09/06 08:27:36;;;;;;;9.25;3.63;;;17.70;78.20;;;;;;5025644;28;20040;-68
2021/09/06 08:30:05;;;;;;;3.67;2.58;;;17.60;78.10;;;;;;5019864;28;20026;-68
2021/09/06 08:32:31;;;;;;;6.90;3.85;;;17.50;78.70;;;;;;5020005;28;20033;-68
2021/09/06 08:34:58;;;;;;;3.20;2.08;;;17.40;79.20;;;;;;5017555;28;21473;-68
2021/09/06 08:37:24;;;;;;;4.50;4.10;;;17.30;79.50;;;;;;5021769;28;20436;-68
2021/09/06 08:39:51;;;;;;;4.78;3.17;;;17.40;79.20;;;;;;5018280;28;20033;-67
2021/09/06 08:42:18;;;;;;;9.55;3.40;;;17.50;78.90;;;;;;5028969;28;20080;-67
2021/09/06 08:44:46;;;;;;;6.70;1.88;;;17.60;79.30;;;;;;5018471;28;20363;-67
2021/09/06 08:47:14;;;;;;;1.33;1.27;;;17.50;79.10;;;;;;5024925;28;20037;-67
2021/09/06 08:49:42;;;;;;;12.63;4.75;;;17.40;79.40;;;;;;5031880;28;20323;-67
2021/09/06 08:52:08;;;;;;;7.30;4.13;;;17.20;79.90;;;;;;5023979;28;20463;-67
2021/09/06 08:54:35;;;;;;;5.00;2.25;;;17.30;80.00;;;;;;5023214;28;20087;-67
2021/09/06 08:57:01;;;;;;;5.82;3.05;;;17.20;80.00;;;;;;5029287;28;20357;-67
2021/09/06 08:59:28;;;;;;;5.72;1.88;;;17.30;80.00;;;;;;5034220;28;20034;-67
2021/09/06 09:01:54;;;;;;;9.20;3.65;;;17.10;80.40;;;;;;5027265;28;20280;-67
2021/09/06 09:04:26;;;;;;;8.43;3.65;;;17.10;80.80;;;;;;5035882;28;20465;-68
2021/09/06 09:07:00;;;;;;;4.43;2.50;;;17.10;80.60;;;;;;5030938;28;20455;-67
2021/09/06 09:09:36;;;;;;;2.97;2.35;;;17.10;80.70;;;;;;5031129;28;20025;-67
2021/09/06 09:12:11;;;;;;;3.60;2.17;;;17.10;80.70;;;;;;5035859;28;20460;-67
2021/09/06 09:14:41;;;;;;;3.28;3.00;;;17.20;80.50;;;;;;5032219;28;20086;-67
2021/09/06 09:17:10;;;;;;;6.45;4.43;;;17.10;80.50;;;;;;5032027;28;20040;-67
2021/09/06 09:19:40;;;;;;;3.83;2.40;;;17.00;81.10;;;;;;5028131;28;20478;-66
2021/09/06 09:22:10;;;;;;;9.00;5.35;;;16.90;81.30;;;;;;5028874;28;20029;-67
2021/09/06 09:24:37;;;;;;;3.90;3.57;;;16.90;81.00;;;;;;5029409;28;20022;-66
2021/09/06 09:27:07;;;;;;;2.20;2.10;;;16.80;81.40;;;;;;5030365;28;20163;-66
2021/09/06 09:29:34;;;;;;;6.35;3.70;;;16.80;81.40;;;;;;5024423;28;20076;-66
2021/09/06 09:32:10;;;;;;;5.32;3.30;;;16.70;81.60;;;;;;5031306;28;20474;-67
2021/09/06 09:34:41;;;;;;;4.78;1.92;;;16.90;81.20;;;;;;5034895;28;20464;-66
2021/09/06 09:37:08;;;;;;;6.22;4.18;;;16.90;81.00;;;;;;5028788;28;20033;-66
2021/09/06 09:39:35;;;;;;;2.28;1.95;;;16.90;80.80;;;;;;5020898;28;20026;-66
2021/09/06 09:42:11;;;;;;;5.10;3.92;;;16.80;80.90;;;;;;5025492;28;20092;-66
2021/09/06 09:44:49;;;;;;;2.70;2.03;;;16.80;80.80;;;;;;5017402;28;20026;-67
2021/09/06 09:47:19;;;;;;;11.32;2.85;;;16.70;80.90;;;;;;5019434;28;20033;-67
2021/09/06 09:49:47;;;;;;;3.70;2.15;;;16.60;81.20;;;;;;5021542;28;20030;-66
2021/09/06 09:52:18;;;;;;;3.50;2.70;;;16.80;80.30;;;;;;5033836;28;20104;-66
2021/09/06 09:54:52;;;;;;;3.90;1.93;;;16.80;80.60;;;;;;5034417;28;20124;-66
2021/09/06 09:57:19;;;;;;;6.20;3.33;;;16.80;80.10;;;;;;5021203;28;20270;-66
2021/09/06 09:59:45;;;;;;;2.95;2.53;;;16.80;79.90;;;;;;5023840;28;20466;-66
2021/09/06 10:02:20;;;;;;;4.68;2.53;;;16.70;79.90;;;;;;5024805;28;20022;-68
2021/09/06 10:04:55;;;;;;;7.88;3.15;;;16.70;79.70;;;;;;5016281;28;20105;-67
2021/09/06 10:07:26;;;;;;;2.63;2.28;;;16.70;80.00;;;;;;5025106;28;20049;-67
2021/09/06 10:09:53;;;;;;;2.58;2.00;;;16.60;79.50;;;;;;5022632;28;20022;-67
2021/09/06 10:12:24;;;;;;;2.55;2.38;;;16.60;79.30;;;;;;5018886;28;20033;-66
2021/09/06 10:14:56;;;;;;;2.28;2.13;;;16.60;79.50;;;;;;5019567;28;20017;-67
2021/09/06 10:17:37;;;;;;;2.13;2.03;;;16.50;79.70;;;;;;5022415;28;20025;-67
2021/09/06 10:20:17;;;;;;;6.53;4.38;;;16.50;79.70;;;;;;5016385;28;20018;-67
2021/09/06 10:22:45;;;;;;;2.25;2.05;;;16.40;79.60;;;;;;5034746;28;20053;-66
2021/09/06 10:25:17;;;;;;;19.27;3.97;;;16.50;79.70;;;;;;5032594;28;20429;-66
2021/09/06 10:27:54;;;;;;;2.20;2.10;;;16.40;79.80;;;;;;5022921;28;20017;-67
2021/09/06 10:30:42;;;;;;;3.72;3.42;;;16.30;79.90;;;;;;5024445;28;20356;-67
2021/09/06 10:33:28;;;;;;;10.13;2.97;;;16.30;80.40;;;;;;5016096;28;20045;-67
2021/09/06 10:36:04;;;;;;;1.70;1.60;;;16.20;80.10;;;;;;5023694;28;20022;-67
2021/09/06 10:39:14;;;;;;;3.75;2.30;;;16.10;80.40;;;;;;5028941;28;20037;-67
2021/09/06 10:41:51;;;;;;;1.75;1.60;;;15.90;79.70;;;;;;5022738;28;20360;-67
2021/09/06 10:44:18;;;;;;;2.13;1.52;;;16.00;80.00;;;;;;5022570;28;20030;-67
2021/09/06 10:46:57;;;;;;;3.55;2.10;;;15.90;79.90;;;;;;5027802;28;20030;-67
2021/09/06 10:49:25;;;;;;;9.25;4.03;;;15.90;79.60;;;;;;5032834;28;20025;-66
2021/09/06 10:51:55;;;;;;;5.97;1.85;;;15.80;80.10;;;;;;5020026;28;20033;-67
2021/09/06 10:54:21;;;;;;;5.47;1.60;;;15.80;80.10;;;;;;5029120;28;20104;-67
2021/09/06 10:56:48;;;;;;;2.67;1.25;;;15.90;80.20;;;;;;5029017;28;20033;-66
2021/09/06 10:59:14;;;;;;;1.67;1.58;;;16.00;79.90;;;;;;5026106;28;20041;-66
2021/09/06 11:01:40;;;;;;;8.60;2.00;;;16.00;79.70;;;;;;5018188;28;20179;-65
2021/09/06 11:04:07;;;;;;;4.47;3.20;;;16.10;79.40;;;;;;5033227;28;20100;-65
2021/09/06 11:06:34;;;;;;;2.13;2.03;;;16.00;79.30;;;;;;5029561;28;20026;-66
2021/09/06 11:09:00;;;;;;;4.80;4.40;;;15.80;80.10;;;;;;5031966;28;20051;-65
2021/09/06 11:11:31;;;;;;;5.22;3.90;;;16.00;79.80;;;;;;5025991;28;21439;-66
2021/09/06 11:13:57;;;;;;;;;;;15.90;79.50;;;;;;5033395;28;20025;-65
2021/09/06 11:16:35;;;;;;;2.65;1.67;;;15.80;79.40;;;;;;5028637;28;19917;-66
2021/09/06 11:19:14;;;;;;;3.90;2.53;;;15.90;79.30;;;;;;5018846;28;20034;-67
2021/09/06 11:21:41;;;;;;;5.55;2.83;;;15.90;79.40;;;;;;5029424;28;20021;-67
2021/09/06 11:24:07;;;;;;;8.05;3.42;;;15.80;79.10;;;;;;5016466;28;20028;-67
2021/09/06 11:26:34;;;;;;;8.38;2.28;;;15.80;79.30;;;;;;5029682;28;20049;-67
2021/09/06 11:29:01;;;;;;;3.00;2.70;;;15.90;79.20;;;;;;5028090;28;20417;-67
2021/09/06 11:31:28;;;;;;;2.67;2.45;;;15.80;79.20;;;;;;5025196;28;20029;-67
2021/09/06 11:34:04;;;;;;;4.57;1.23;;;15.70;79.80;;;;;;5018723;28;20036;-66
2021/09/06 11:36:31;;;;;;;2.50;2.33;;;15.70;79.70;;;;;;5025992;28;20022;-66
2021/09/06 11:38:58;;;;;;;9.35;4.15;;;15.70;79.80;;;;;;5019271;28;20113;-66
2021/09/06 11:41:25;;;;;;;1.95;1.85;;;15.70;79.90;;;;;;5015017;28;20109;-67
2021/09/06 11:43:53;;;;;;;7.50;3.92;;;15.60;80.00;;;;;;5026387;28;20021;-67
2021/09/06 11:46:21;;;;;;;5.53;3.15;;;15.60;79.90;;;;;;5025125;28;20025;-67
2021/09/06 11:48:50;;;;;;;7.07;3.92;;;15.60;79.80;;;;;;5030059;28;20128;-66
2021/09/06 11:51:18;;;;;;;5.32;1.80;;;15.60;80.30;;;;;;5021181;28;20041;-66
2021/09/06 11:53:59;;;;;;;3.05;2.33;;;15.50;80.20;;;;;;5027031;28;20384;-66
2021/09/06 11:56:26;;;;;;;6.30;2.90;;;15.50;80.30;;;;;;5024998;28;20030;-66
2021/09/06 11:58:56;;;;;;;7.10;2.80;;;15.40;79.90;;;;;;5027903;28;20033;-66
2021/09/06 12:01:24;;;;;;;4.23;1.93;;;15.40;80.10;;;;;;5029848;28;20420;-66
2021/09/06 12:03:50;;;;;;;1.00;1.00;;;15.30;80.60;;;;;;5026447;28;20263;-66
2021/09/06 12:06:23;;;;;;;4.45;1.90;;;15.40;80.80;;;;;;5014688;28;20022;-66
2021/09/06 12:08:52;;;;;;;5.75;2.63;;;15.30;80.10;;;;;;5028686;28;20083;-66
2021/09/06 12:11:19;;;;;;;4.90;3.08;;;15.40;80.00;;;;;;5021815;28;20056;-66
2021/09/06 12:13:57;;;;;;;4.10;1.48;;;15.30;80.30;;;;;;5033817;28;20029;-66
2021/09/06 12:16:29;;;;;;;1.08;0.95;;;15.20;81.10;;;;;;5018028;28;20030;-66
2021/09/06 12:18:57;;;;;;;4.68;3.00;;;15.20;80.70;;;;;;5025976;28;20052;-66
2021/09/06 12:21:25;;;;;;;2.60;1.33;;;15.30;80.40;;;;;;5029319;28;20052;-66
2021/09/06 12:24:03;;;;;;;1.33;1.23;;;15.20;80.60;;;;;;5023119;28;20048;-66
2021/09/06 12:26:41;;;;;;;4.15;2.95;;;15.20;80.70;;;;;;5014595;28;20037;-67
2021/09/06 12:29:08;;;;;;;4.20;2.97;;;14.90;80.90;;;;;;5024187;28;20030;-67
2021/09/06 12:31:45;;;;;;;4.97;1.70;;;14.90;81.20;;;;;;5018265;28;20060;-67
2021/09/06 12:34:13;;;;;;;1.48;1.38;;;15.10;80.80;;;;;;5016993;28;20100;-67
2021/09/06 12:36:41;;;;;;;2.28;1.92;;;15.20;80.40;;;;;;5022124;28;20033;-67
2021/09/06 12:39:08;;;;;;;3.58;3.28;;;15.20;80.30;;;;;;5026731;28;20033;-67
2021/09/06 12:41:34;;;;;;;1.75;1.50;;;15.10;80.20;;;;;;5024140;28;20022;-67
2021/09/06 12:44:00;;;;;;;4.78;2.50;;;15.20;80.10;;;;;;5028804;28;20022;-67
2021/09/06 12:46:28;;;;;;;1.40;1.17;;;15.10;80.20;;;;;;5025570;28;20018;-67
2021/09/06 12:48:55;;;;;;;8.38;1.80;;;15.00;80.40;;;;;;5022568;28;20109;-66